sensor_id;sensor_type;location;lat;lon;timestamp;pressure;altitude;pressure_sealevel;temperature;humidity
12077;BME280;12420;42.676;23.262;2023-04-20T00:01:51;94243.84;;;11.71;85.31
12077;BME280;12420;42.676;23.262;2023-04-20T00:04:19;94238.88;;;11.78;85.46
12077;BME280;12420;42.676;23.262;2023-04-20T00:06:46;94123.13;;;11.05;85.78
12077;BME280;12420;42.676;23.262;2023-04-20T00:09:13;94182.41;;;11.60;84.84
12077;BME280;12420;42.676;23.262;2023-04-20T00:11:41;94228.94;;;11.82;84.79
12077;BME280;12420;42.676;23.262;2023-04-20T00:14:07;94219.88;;;11.82;85.72
12077;BME280;12420;42.676;23.262;2023-04-20T00:16:34;94232.13;;;11.86;86.28
12077;BME280;12420;42.676;23.262;2023-04-20T00:19:01;94165.13;;;11.46;85.92
12077;BME280;12420;42.676;23.262;2023-04-20T00:21:29;94190.59;;;11.65;85.75
12077;BME280;12420;42.676;23.262;2023-04-20T00:23:56;94185.03;;;11.65;86.62
12077;BME280;12420;42.676;23.262;2023-04-20T00:26:23;94224.19;;;11.90;86.50
12077;BME280;12420;42.676;23.262;2023-04-20T00:28:50;94217.38;;;11.91;85.64
12077;BME280;12420;42.676;23.262;2023-04-20T00:31:18;94215.63;;;11.81;86.34
12077;BME280;12420;42.676;23.262;2023-04-20T00:33:45;94200.91;;;11.65;85.87
12077;BME280;12420;42.676;23.262;2023-04-20T00:36:12;94213.03;;;11.83;85.40
12077;BME280;12420;42.676;23.262;2023-04-20T00:38:40;94218.09;;;11.63;87.04
12077;BME280;12420;42.676;23.262;2023-04-20T00:41:07;94206.13;;;11.40;86.94
12077;BME280;12420;42.676;23.262;2023-04-20T00:43:34;94183.81;;;11.24;87.61
12077;BME280;12420;42.676;23.262;2023-04-20T00:46:01;94216.00;;;11.27;89.99
12077;BME280;12420;42.676;23.262;2023-04-20T00:48:29;94210.72;;;11.16;90.90
12077;BME280;12420;42.676;23.262;2023-04-20T00:50:56;94209.34;;;10.89;93.17
12077;BME280;12420;42.676;23.262;2023-04-20T00:53:22;94214.72;;;10.86;94.37
12077;BME280;12420;42.676;23.262;2023-04-20T00:55:51;94212.59;;;10.79;96.02
12077;BME280;12420;42.676;23.262;2023-04-20T00:58:17;94169.34;;;10.55;96.14
12077;BME280;12420;42.676;23.262;2023-04-20T01:00:44;94157.41;;;10.39;97.34
12077;BME280;12420;42.676;23.262;2023-04-20T01:03:11;94214.94;;;10.75;97.68
12077;BME280;12420;42.676;23.262;2023-04-20T01:05:39;94212.38;;;10.56;99.29
12077;BME280;12420;42.676;23.262;2023-04-20T01:08:06;94180.59;;;10.36;100.00
12077;BME280;12420;42.676;23.262;2023-04-20T01:10:33;94179.56;;;10.26;100.00
12077;BME280;12420;42.676;23.262;2023-04-20T01:13:02;94179.56;;;10.26;100.00
12077;BME280;12420;42.676;23.262;2023-04-20T01:15:28;94232.97;;;10.34;100.00
12077;BME280;12420;42.676;23.262;2023-04-20T01:17:55;94183.91;;;10.35;100.00
12077;BME280;12420;42.676;23.262;2023-04-20T01:20:22;94182.28;;;10.39;100.00
12077;BME280;12420;42.676;23.262;2023-04-20T01:22:51;94202.28;;;10.46;100.00
12077;BME280;12420;42.676;23.262;2023-04-20T01:25:20;94149.00;;;9.97;100.00
12077;BME280;12420;42.676;23.262;2023-04-20T01:27:47;94187.41;;;10.35;100.00
12077;BME280;12420;42.676;23.262;2023-04-20T01:30:14;94098.28;;;9.82;100.00
12077;BME280;12420;42.676;23.262;2023-04-20T01:32:41;94169.22;;;10.27;100.00
12077;BME280;12420;42.676;23.262;2023-04-20T01:35:08;94199.72;;;10.48;100.00
12077;BME280;12420;42.676;23.262;2023-04-20T01:37:36;94177.41;;;10.32;100.00
12077;BME280;12420;42.676;23.262;2023-04-20T01:40:07;94187.22;;;10.20;100.00
12077;BME280;12420;42.676;23.262;2023-04-20T01:42:35;94166.41;;;10.06;100.00
12077;BME280;12420;42.676;23.262;2023-04-20T01:45:03;94142.59;;;9.89;100.00
12077;BME280;12420;42.676;23.262;2023-04-20T01:47:30;94201.66;;;10.39;100.00
12077;BME280;12420;42.676;23.262;2023-04-20T01:49:58;94183.88;;;10.48;100.00
12077;BME280;12420;42.676;23.262;2023-04-20T01:52:25;94176.25;;;10.62;100.00
12077;BME280;12420;42.676;23.262;2023-04-20T01:54:51;94179.44;;;10.66;100.00
12077;BME280;12420;42.676;23.262;2023-04-20T01:57:20;94181.59;;;10.60;100.00
12077;BME280;12420;42.676;23.262;2023-04-20T01:59:47;94123.84;;;10.09;100.00
12077;BME280;12420;42.676;23.262;2023-04-20T02:02:17;94179.25;;;10.64;100.00
12077;BME280;12420;42.676;23.262;2023-04-20T02:04:44;94166.44;;;10.40;100.00
12077;BME280;12420;42.676;23.262;2023-04-20T02:07:11;94068.19;;;9.91;100.00
12077;BME280;12420;42.676;23.262;2023-04-20T02:09:38;94188.97;;;10.78;99.51
12077;BME280;12420;42.676;23.262;2023-04-20T02:12:05;94180.72;;;10.65;99.38
12077;BME280;12420;42.676;23.262;2023-04-20T02:14:33;94082.22;;;9.93;99.46
12077;BME280;12420;42.676;23.262;2023-04-20T02:17:00;94170.72;;;10.62;99.74
12077;BME280;12420;42.676;23.262;2023-04-20T02:19:28;94153.16;;;10.38;98.88
12077;BME280;12420;42.676;23.262;2023-04-20T02:21:54;94182.06;;;10.51;98.92
12077;BME280;12420;42.676;23.262;2023-04-20T02:24:21;94190.88;;;10.49;99.55
12077;BME280;12420;42.676;23.262;2023-04-20T02:26:48;94194.75;;;10.46;99.91
12077;BME280;12420;42.676;23.262;2023-04-20T02:29:15;94131.72;;;10.18;100.00
12077;BME280;12420;42.676;23.262;2023-04-20T02:31:43;94175.59;;;10.35;100.00
12077;BME280;12420;42.676;23.262;2023-04-20T02:34:11;94183.78;;;10.40;100.00
12077;BME280;12420;42.676;23.262;2023-04-20T02:36:37;94086.50;;;9.81;100.00
12077;BME280;12420;42.676;23.262;2023-04-20T02:39:04;94183.47;;;10.44;98.58
12077;BME280;12420;42.676;23.262;2023-04-20T02:41:31;94179.38;;;10.58;98.17
12077;BME280;12420;42.676;23.262;2023-04-20T02:43:58;94183.69;;;10.67;97.01
12077;BME280;12420;42.676;23.262;2023-04-20T02:46:24;94154.91;;;10.28;98.48
12077;BME280;12420;42.676;23.262;2023-04-20T02:48:52;94190.22;;;10.56;99.25
12077;BME280;12420;42.676;23.262;2023-04-20T02:51:20;94136.28;;;10.15;98.96
12077;BME280;12420;42.676;23.262;2023-04-20T02:53:49;94186.06;;;10.29;100.00
12077;BME280;12420;42.676;23.262;2023-04-20T02:56:15;94165.97;;;10.02;100.00
12077;BME280;12420;42.676;23.262;2023-04-20T02:58:43;94181.38;;;10.24;100.00
12077;BME280;12420;42.676;23.262;2023-04-20T03:01:09;94166.41;;;10.06;100.00
12077;BME280;12420;42.676;23.262;2023-04-20T03:03:36;94218.09;;;9.84;100.00
12077;BME280;12420;42.676;23.262;2023-04-20T03:06:07;94220.53;;;10.01;100.00
12077;BME280;12420;42.676;23.262;2023-04-20T03:08:34;94179.16;;;10.09;100.00
12077;BME280;12420;42.676;23.262;2023-04-20T03:11:01;94172.16;;;10.08;100.00
12077;BME280;12420;42.676;23.262;2023-04-20T03:13:28;94176.91;;;10.07;100.00
12077;BME280;12420;42.676;23.262;2023-04-20T03:15:55;94198.50;;;10.09;100.00
12077;BME280;12420;42.676;23.262;2023-04-20T03:18:22;94171.59;;;10.09;100.00
12077;BME280;12420;42.676;23.262;2023-04-20T03:20:49;94157.59;;;9.94;100.00
12077;BME280;12420;42.676;23.262;2023-04-20T03:23:18;94135.84;;;9.50;100.00
12077;BME280;12420;42.676;23.262;2023-04-20T03:25:46;94224.22;;;10.17;100.00
12077;BME280;12420;42.676;23.262;2023-04-20T03:28:14;94108.00;;;9.75;100.00
12077;BME280;12420;42.676;23.262;2023-04-20T03:30:41;94027.22;;;9.21;100.00
12077;BME280;12420;42.676;23.262;2023-04-20T03:33:09;94183.97;;;10.42;100.00
12077;BME280;12420;42.676;23.262;2023-04-20T03:35:37;94186.34;;;10.38;100.00
12077;BME280;12420;42.676;23.262;2023-04-20T03:38:04;94131.75;;;9.91;100.00
12077;BME280;12420;42.676;23.262;2023-04-20T03:40:33;94152.88;;;10.15;100.00
12077;BME280;12420;42.676;23.262;2023-04-20T03:43:00;94184.03;;;10.29;100.00
12077;BME280;12420;42.676;23.262;2023-04-20T03:45:27;94179.41;;;9.97;100.00
12077;BME280;12420;42.676;23.262;2023-04-20T03:47:56;94040.25;;;9.21;100.00
12077;BME280;12420;42.676;23.262;2023-04-20T03:50:23;94134.56;;;10.12;100.00
12077;BME280;12420;42.676;23.262;2023-04-20T03:52:50;94161.44;;;10.25;100.00
12077;BME280;12420;42.676;23.262;2023-04-20T03:55:17;94075.69;;;9.70;100.00
12077;BME280;12420;42.676;23.262;2023-04-20T03:57:46;94198.13;;;10.73;99.34
12077;BME280;12420;42.676;23.262;2023-04-20T04:00:13;94094.19;;;10.09;97.10
12077;BME280;12420;42.676;23.262;2023-04-20T04:02:40;94166.19;;;10.51;96.14
12077;BME280;12420;42.676;23.262;2023-04-20T04:05:08;94184.50;;;10.96;96.93
12077;BME280;12420;42.676;23.262;2023-04-20T04:07:35;94205.63;;;10.86;95.13
12077;BME280;12420;42.676;23.262;2023-04-20T04:10:02;94194.97;;;11.11;95.07
12077;BME280;12420;42.676;23.262;2023-04-20T04:12:30;94171.88;;;10.67;93.88
12077;BME280;12420;42.676;23.262;2023-04-20T04:14:58;94092.69;;;10.08;94.52
12077;BME280;12420;42.676;23.262;2023-04-20T04:17:25;94119.28;;;10.46;94.20
12077;BME280;12420;42.676;23.262;2023-04-20T04:19:52;94138.75;;;10.74;94.27
12077;BME280;12420;42.676;23.262;2023-04-20T04:22:19;94200.97;;;11.44;92.60
12077;BME280;12420;42.676;23.262;2023-04-20T04:24:46;94207.81;;;11.43;92.02
12077;BME280;12420;42.676;23.262;2023-04-20T04:27:13;94110.84;;;10.72;91.76
12077;BME280;12420;42.676;23.262;2023-04-20T04:29:40;94180.50;;;11.26;92.09
12077;BME280;12420;42.676;23.262;2023-04-20T04:32:16;94173.03;;;11.13;92.67
12077;BME280;12420;42.676;23.262;2023-04-20T04:34:43;94200.91;;;11.36;92.71
12077;BME280;12420;42.676;23.262;2023-04-20T04:37:10;94203.19;;;11.45;92.34
12077;BME280;12420;42.676;23.262;2023-04-20T04:39:37;94115.09;;;10.73;92.37
12077;BME280;12420;42.676;23.262;2023-04-20T04:42:05;94213.00;;;11.25;93.24
12077;BME280;12420;42.676;23.262;2023-04-20T04:44:33;94239.72;;;11.15;94.11
12077;BME280;12420;42.676;23.262;2023-04-20T04:47:01;94203.88;;;10.96;94.35
12077;BME280;12420;42.676;23.262;2023-04-20T04:49:31;94214.78;;;11.15;94.51
12077;BME280;12420;42.676;23.262;2023-04-20T04:52:00;94236.38;;;11.17;94.72
12077;BME280;12420;42.676;23.262;2023-04-20T04:54:27;94227.19;;;11.01;96.28
12077;BME280;12420;42.676;23.262;2023-04-20T04:56:53;94229.75;;;10.99;95.84
12077;BME280;12420;42.676;23.262;2023-04-20T04:59:20;94167.28;;;10.48;96.80
12077;BME280;12420;42.676;23.262;2023-04-20T05:01:49;94189.56;;;10.29;98.34
12077;BME280;12420;42.676;23.262;2023-04-20T05:04:18;94204.75;;;10.70;96.93
12077;BME280;12420;42.676;23.262;2023-04-20T05:06:48;94215.09;;;10.91;96.60
12077;BME280;12420;42.676;23.262;2023-04-20T05:09:17;94235.03;;;11.10;96.28
12077;BME280;12420;42.676;23.262;2023-04-20T05:11:44;94229.88;;;11.14;95.66
12077;BME280;12420;42.676;23.262;2023-04-20T05:14:11;94220.56;;;11.04;95.68
12077;BME280;12420;42.676;23.262;2023-04-20T05:16:40;94214.44;;;11.19;95.47
12077;BME280;12420;42.676;23.262;2023-04-20T05:19:08;94227.53;;;11.39;96.12
12077;BME280;12420;42.676;23.262;2023-04-20T05:21:35;94223.41;;;11.33;94.68
12077;BME280;12420;42.676;23.262;2023-04-20T05:24:06;94220.84;;;11.14;94.31
12077;BME280;12420;42.676;23.262;2023-04-20T05:26:33;94231.91;;;11.35;94.30
12077;BME280;12420;42.676;23.262;2023-04-20T05:29:00;94227.00;;;11.41;94.45
12077;BME280;12420;42.676;23.262;2023-04-20T05:31:27;94202.91;;;11.07;95.43
12077;BME280;12420;42.676;23.262;2023-04-20T05:33:55;94238.97;;;11.15;97.22
12077;BME280;12420;42.676;23.262;2023-04-20T05:36:21;94236.34;;;11.30;96.97
12077;BME280;12420;42.676;23.262;2023-04-20T05:38:49;94240.63;;;11.39;96.30
12077;BME280;12420;42.676;23.262;2023-04-20T05:41:17;94243.81;;;11.43;96.14
12077;BME280;12420;42.676;23.262;2023-04-20T05:43:51;94244.34;;;11.41;96.26
12077;BME280;12420;42.676;23.262;2023-04-20T05:46:18;94240.16;;;11.27;96.34
12077;BME280;12420;42.676;23.262;2023-04-20T05:48:44;94249.31;;;11.35;97.57
12077;BME280;12420;42.676;23.262;2023-04-20T05:51:13;94246.75;;;11.37;97.52
12077;BME280;12420;42.676;23.262;2023-04-20T05:53:42;94247.69;;;11.40;98.17
12077;BME280;12420;42.676;23.262;2023-04-20T05:56:21;94250.69;;;11.49;98.20
12077;BME280;12420;42.676;23.262;2023-04-20T05:58:48;94204.38;;;11.08;99.64
12077;BME280;12420;42.676;23.262;2023-04-20T06:01:14;94247.97;;;11.57;100.00
12077;BME280;12420;42.676;23.262;2023-04-20T06:03:41;94237.88;;;11.39;100.00
12077;BME280;12420;42.676;23.262;2023-04-20T06:06:08;94243.31;;;11.52;100.00
12077;BME280;12420;42.676;23.262;2023-04-20T06:08:35;94239.59;;;11.49;100.00
12077;BME280;12420;42.676;23.262;2023-04-20T06:11:02;94237.41;;;11.48;100.00
12077;BME280;12420;42.676;23.262;2023-04-20T06:13:30;94241.75;;;11.64;100.00
12077;BME280;12420;42.676;23.262;2023-04-20T06:15:57;94240.34;;;11.71;100.00
12077;BME280;12420;42.676;23.262;2023-04-20T06:18:24;94217.50;;;11.57;100.00
12077;BME280;12420;42.676;23.262;2023-04-20T06:20:51;94235.53;;;11.71;100.00
12077;BME280;12420;42.676;23.262;2023-04-20T06:23:18;94187.72;;;11.50;100.00
12077;BME280;12420;42.676;23.262;2023-04-20T06:25:44;94247.03;;;11.76;100.00
12077;BME280;12420;42.676;23.262;2023-04-20T06:28:11;94245.25;;;11.86;100.00
12077;BME280;12420;42.676;23.262;2023-04-20T06:30:39;94238.88;;;11.78;100.00
12077;BME280;12420;42.676;23.262;2023-04-20T06:33:06;94247.06;;;11.83;100.00
12077;BME280;12420;42.676;23.262;2023-04-20T06:35:33;94253.84;;;11.74;100.00
12077;BME280;12420;42.676;23.262;2023-04-20T06:38:01;94232.41;;;11.75;100.00
12077;BME280;12420;42.676;23.262;2023-04-20T06:40:29;94237.13;;;11.88;100.00
12077;BME280;12420;42.676;23.262;2023-04-20T06:42:55;94250.06;;;12.14;100.00
12077;BME280;12420;42.676;23.262;2023-04-20T06:45:22;94277.34;;;12.02;99.70
12077;BME280;12420;42.676;23.262;2023-04-20T06:47:50;94259.31;;;11.88;100.00
12077;BME280;12420;42.676;23.262;2023-04-20T06:50:17;94247.34;;;11.72;100.00
12077;BME280;12420;42.676;23.262;2023-04-20T06:52:46;94266.75;;;11.72;100.00
12077;BME280;12420;42.676;23.262;2023-04-20T06:55:13;94275.41;;;11.89;100.00
12077;BME280;12420;42.676;23.262;2023-04-20T06:57:40;94261.38;;;11.66;100.00
12077;BME280;12420;42.676;23.262;2023-04-20T07:00:09;94271.91;;;11.68;100.00
12077;BME280;12420;42.676;23.262;2023-04-20T07:02:44;94263.28;;;11.50;100.00
12077;BME280;12420;42.676;23.262;2023-04-20T07:05:13;94272.44;;;11.66;100.00
12077;BME280;12420;42.676;23.262;2023-04-20T07:07:40;94273.81;;;11.73;100.00
12077;BME280;12420;42.676;23.262;2023-04-20T07:10:09;94274.97;;;11.85;100.00
12077;BME280;12420;42.676;23.262;2023-04-20T07:12:37;94246.88;;;11.81;100.00
12077;BME280;12420;42.676;23.262;2023-04-20T07:15:05;94246.38;;;11.90;100.00
12077;BME280;12420;42.676;23.262;2023-04-20T07:17:32;94282.13;;;12.30;100.00
12077;BME280;12420;42.676;23.262;2023-04-20T07:20:00;94261.75;;;12.28;100.00
12077;BME280;12420;42.676;23.262;2023-04-20T07:22:33;94276.31;;;12.49;100.00
12077;BME280;12420;42.676;23.262;2023-04-20T07:25:00;94269.06;;;12.46;100.00
12077;BME280;12420;42.676;23.262;2023-04-20T07:27:29;94275.25;;;12.60;100.00
12077;BME280;12420;42.676;23.262;2023-04-20T07:29:57;94275.97;;;12.60;100.00
12077;BME280;12420;42.676;23.262;2023-04-20T07:32:24;94271.75;;;12.67;100.00
12077;BME280;12420;42.676;23.262;2023-04-20T07:34:51;94268.38;;;12.61;100.00
12077;BME280;12420;42.676;23.262;2023-04-20T07:37:18;94263.78;;;12.71;100.00
12077;BME280;12420;42.676;23.262;2023-04-20T07:39:46;94229.72;;;12.63;100.00
12077;BME280;12420;42.676;23.262;2023-04-20T07:42:13;94276.13;;;13.14;100.00
12077;BME280;12420;42.676;23.262;2023-04-20T07:44:40;94266.88;;;13.12;98.14
12077;BME280;12420;42.676;23.262;2023-04-20T07:47:07;94276.03;;;13.58;97.30
12077;BME280;12420;42.676;23.262;2023-04-20T07:49:35;94294.75;;;13.88;91.71
12077;BME280;12420;42.676;23.262;2023-04-20T07:52:02;94276.38;;;14.01;91.60
12077;BME280;12420;42.676;23.262;2023-04-20T07:54:29;94261.72;;;14.08;91.14
12077;BME280;12420;42.676;23.262;2023-04-20T07:56:58;94278.44;;;13.93;87.87
12077;BME280;12420;42.676;23.262;2023-04-20T07:59:25;94285.13;;;13.97;87.93
12077;BME280;12420;42.676;23.262;2023-04-20T08:01:52;94255.97;;;14.06;88.38
12077;BME280;12420;42.676;23.262;2023-04-20T08:04:20;94291.78;;;14.09;86.03
12077;BME280;12420;42.676;23.262;2023-04-20T08:06:47;94267.63;;;14.27;86.95
12077;BME280;12420;42.676;23.262;2023-04-20T08:09:14;94268.75;;;14.09;86.21
12077;BME280;12420;42.676;23.262;2023-04-20T08:11:41;94285.78;;;14.36;85.24
12077;BME280;12420;42.676;23.262;2023-04-20T08:14:11;94287.31;;;13.91;84.55
12077;BME280;12420;42.676;23.262;2023-04-20T08:16:38;94288.06;;;13.53;86.81
12077;BME280;12420;42.676;23.262;2023-04-20T08:19:05;94284.66;;;13.09;87.68
12077;BME280;12420;42.676;23.262;2023-04-20T08:21:34;94275.81;;;12.66;90.93
12077;BME280;12420;42.676;23.262;2023-04-20T08:24:01;94288.22;;;12.65;91.32
12077;BME280;12420;42.676;23.262;2023-04-20T08:26:28;94276.97;;;12.34;92.48
12077;BME280;12420;42.676;23.262;2023-04-20T08:28:55;94257.25;;;12.53;93.93
12077;BME280;12420;42.676;23.262;2023-04-20T08:31:23;94270.72;;;12.42;92.95
12077;BME280;12420;42.676;23.262;2023-04-20T08:33:50;94247.19;;;12.35;93.05
12077;BME280;12420;42.676;23.262;2023-04-20T08:36:18;94281.13;;;12.56;91.45
12077;BME280;12420;42.676;23.262;2023-04-20T08:38:45;94280.22;;;12.62;93.01
12077;BME280;12420;42.676;23.262;2023-04-20T08:41:12;94288.19;;;12.57;92.22
12077;BME280;12420;42.676;23.262;2023-04-20T08:43:39;94246.22;;;12.25;92.14
12077;BME280;12420;42.676;23.262;2023-04-20T08:46:06;94279.84;;;12.57;93.75
12077;BME280;12420;42.676;23.262;2023-04-20T08:48:35;94276.69;;;12.53;93.80
12077;BME280;12420;42.676;23.262;2023-04-20T08:51:03;94267.81;;;12.55;92.88
12077;BME280;12420;42.676;23.262;2023-04-20T08:53:31;94301.47;;;12.51;93.67
12077;BME280;12420;42.676;23.262;2023-04-20T08:55:58;94295.09;;;12.35;94.30
12077;BME280;12420;42.676;23.262;2023-04-20T08:58:28;94285.75;;;12.18;94.58
12077;BME280;12420;42.676;23.262;2023-04-20T09:00:56;94290.00;;;12.19;95.92
12077;BME280;12420;42.676;23.262;2023-04-20T09:03:31;94247.97;;;12.07;95.75
12077;BME280;12420;42.676;23.262;2023-04-20T09:05:59;94275.50;;;12.41;95.65
12077;BME280;12420;42.676;23.262;2023-04-20T09:08:33;94283.56;;;12.60;93.83
12077;BME280;12420;42.676;23.262;2023-04-20T09:11:01;94287.47;;;12.65;93.00
12077;BME280;12420;42.676;23.262;2023-04-20T09:13:28;94252.63;;;12.56;92.67
12077;BME280;12420;42.676;23.262;2023-04-20T09:15:55;94243.38;;;12.53;91.86
12077;BME280;12420;42.676;23.262;2023-04-20T09:18:22;94290.00;;;13.07;92.24
12077;BME280;12420;42.676;23.262;2023-04-20T09:20:49;94243.81;;;12.73;90.12
12077;BME280;12420;42.676;23.262;2023-04-20T09:23:18;94288.91;;;13.10;91.19
12077;BME280;12420;42.676;23.262;2023-04-20T09:25:49;94271.91;;;13.21;92.33
12077;BME280;12420;42.676;23.262;2023-04-20T09:28:17;94268.97;;;13.27;89.22
12077;BME280;12420;42.676;23.262;2023-04-20T09:30:46;94274.34;;;13.48;87.50
12077;BME280;12420;42.676;23.262;2023-04-20T09:33:13;94264.72;;;13.49;86.26
12077;BME280;12420;42.676;23.262;2023-04-20T09:35:41;94273.44;;;13.68;88.86
12077;BME280;12420;42.676;23.262;2023-04-20T09:38:08;94279.16;;;13.93;85.88
12077;BME280;12420;42.676;23.262;2023-04-20T09:40:37;94263.81;;;13.69;85.06
12077;BME280;12420;42.676;23.262;2023-04-20T09:43:08;94288.06;;;13.61;83.97
12077;BME280;12420;42.676;23.262;2023-04-20T09:45:37;94278.44;;;13.77;84.73
12077;BME280;12420;42.676;23.262;2023-04-20T09:48:05;94268.25;;;13.72;83.67
12077;BME280;12420;42.676;23.262;2023-04-20T09:50:34;94237.63;;;13.26;83.90
12077;BME280;12420;42.676;23.262;2023-04-20T09:53:02;94269.38;;;13.54;85.14
12077;BME280;12420;42.676;23.262;2023-04-20T09:55:32;94270.28;;;13.64;85.41
12077;BME280;12420;42.676;23.262;2023-04-20T09:58:16;94273.44;;;13.68;84.20
12077;BME280;12420;42.676;23.262;2023-04-20T10:00:43;94266.59;;;13.69;84.34
12077;BME280;12420;42.676;23.262;2023-04-20T10:03:10;94269.53;;;13.86;84.46
12077;BME280;12420;42.676;23.262;2023-04-20T10:05:37;94264.69;;;14.02;84.85
12077;BME280;12420;42.676;23.262;2023-04-20T10:08:05;94212.44;;;13.70;82.66
12077;BME280;12420;42.676;23.262;2023-04-20T10:10:42;94266.34;;;14.13;81.40
12077;BME280;12420;42.676;23.262;2023-04-20T10:13:13;94236.66;;;14.16;83.13
12077;BME280;12420;42.676;23.262;2023-04-20T10:15:41;94262.75;;;14.43;83.09
12077;BME280;12420;42.676;23.262;2023-04-20T10:18:17;94253.44;;;14.48;82.46
12077;BME280;12420;42.676;23.262;2023-04-20T10:20:44;94258.19;;;14.79;79.92
12077;BME280;12420;42.676;23.262;2023-04-20T10:23:11;94257.38;;;14.93;78.82
12077;BME280;12420;42.676;23.262;2023-04-20T10:25:40;94252.97;;;15.15;77.91
12077;BME280;12420;42.676;23.262;2023-04-20T10:28:09;94242.53;;;14.91;76.59
12077;BME280;12420;42.676;23.262;2023-04-20T10:30:48;94217.69;;;14.77;76.59
12077;BME280;12420;42.676;23.262;2023-04-20T10:33:15;94208.69;;;14.94;75.88
12077;BME280;12420;42.676;23.262;2023-04-20T10:35:46;94256.78;;;15.28;74.62
12077;BME280;12420;42.676;23.262;2023-04-20T10:38:13;94255.16;;;15.50;73.88
12077;BME280;12420;42.676;23.262;2023-04-20T10:40:40;94249.78;;;14.86;74.91
12077;BME280;12420;42.676;23.262;2023-04-20T10:43:17;94222.88;;;14.81;75.48
12077;BME280;12420;42.676;23.262;2023-04-20T10:45:45;94250.72;;;15.22;76.45
12077;BME280;12420;42.676;23.262;2023-04-20T10:48:12;94240.38;;;15.39;75.04
12077;BME280;12420;42.676;23.262;2023-04-20T10:50:39;94288.72;;;15.34;74.28
12077;BME280;12420;42.676;23.262;2023-04-20T10:53:16;94248.78;;;14.99;74.18
12077;BME280;12420;42.676;23.262;2023-04-20T10:55:43;94247.69;;;14.94;75.82
12077;BME280;12420;42.676;23.262;2023-04-20T10:58:20;94249.34;;;14.97;76.48
12077;BME280;12420;42.676;23.262;2023-04-20T11:00:57;94245.19;;;15.14;76.88
12077;BME280;12420;42.676;23.262;2023-04-20T11:03:26;94218.13;;;14.99;76.68
12077;BME280;12420;42.676;23.262;2023-04-20T11:05:53;94233.19;;;15.54;77.20
12077;BME280;12420;42.676;23.262;2023-04-20T11:08:21;94247.13;;;15.79;74.42
12077;BME280;12420;42.676;23.262;2023-04-20T11:10:48;94224.44;;;15.82;72.56
12077;BME280;12420;42.676;23.262;2023-04-20T11:13:18;94237.97;;;15.86;72.38
12077;BME280;12420;42.676;23.262;2023-04-20T11:15:46;94240.47;;;15.74;71.65
12077;BME280;12420;42.676;23.262;2023-04-20T11:18:14;94226.00;;;15.43;72.96
12077;BME280;12420;42.676;23.262;2023-04-20T11:20:49;94231.41;;;15.41;72.14
12077;BME280;12420;42.676;23.262;2023-04-20T11:23:18;94214.84;;;15.68;72.82
12077;BME280;12420;42.676;23.262;2023-04-20T11:25:49;94199.69;;;15.79;72.99
12077;BME280;12420;42.676;23.262;2023-04-20T11:28:18;94224.44;;;15.82;71.65
12077;BME280;12420;42.676;23.262;2023-04-20T11:30:45;94232.56;;;16.23;68.98
12077;BME280;12420;42.676;23.262;2023-04-20T11:33:12;94220.00;;;16.32;67.61
12077;BME280;12420;42.676;23.262;2023-04-20T11:35:41;94215.22;;;16.59;66.30
12077;BME280;12420;42.676;23.262;2023-04-20T11:38:08;94212.50;;;16.69;67.66
12077;BME280;12420;42.676;23.262;2023-04-20T11:40:35;94221.78;;;16.71;66.61
12077;BME280;12420;42.676;23.262;2023-04-20T11:43:02;94201.69;;;16.38;66.10
12077;BME280;12420;42.676;23.262;2023-04-20T11:45:31;94211.13;;;17.05;65.97
12077;BME280;12420;42.676;23.262;2023-04-20T11:47:59;94209.13;;;17.15;63.85
12077;BME280;12420;42.676;23.262;2023-04-20T11:50:27;94174.09;;;16.87;63.27
12077;BME280;12420;42.676;23.262;2023-04-20T11:52:55;94197.44;;;17.09;61.70
12077;BME280;12420;42.676;23.262;2023-04-20T11:55:22;94190.53;;;17.10;62.71
12077;BME280;12420;42.676;23.262;2023-04-20T11:57:49;94174.00;;;16.77;63.13
12077;BME280;12420;42.676;23.262;2023-04-20T12:00:16;94204.41;;;16.90;63.74
12077;BME280;12420;42.676;23.262;2023-04-20T12:02:43;94201.31;;;16.69;64.78
12077;BME280;12420;42.676;23.262;2023-04-20T12:05:10;94203.78;;;16.82;65.12
12077;BME280;12420;42.676;23.262;2023-04-20T12:07:38;94182.28;;;16.40;65.01
12077;BME280;12420;42.676;23.262;2023-04-20T12:10:07;94182.81;;;15.94;67.45
12077;BME280;12420;42.676;23.262;2023-04-20T12:12:34;94203.66;;;15.93;68.33
12077;BME280;12420;42.676;23.262;2023-04-20T12:15:03;94215.53;;;15.01;76.66
12077;BME280;12420;42.676;23.262;2023-04-20T12:17:29;94207.25;;;14.86;78.57
12077;BME280;12420;42.676;23.262;2023-04-20T12:19:56;94197.75;;;14.48;85.23
12077;BME280;12420;42.676;23.262;2023-04-20T12:22:23;94113.94;;;13.81;85.29
12077;BME280;12420;42.676;23.262;2023-04-20T12:24:50;94173.88;;;14.38;85.17
12077;BME280;12420;42.676;23.262;2023-04-20T12:27:18;94178.09;;;14.46;86.28
12077;BME280;12420;42.676;23.262;2023-04-20T12:29:45;94193.50;;;14.40;87.92
12077;BME280;12420;42.676;23.262;2023-04-20T12:32:12;94182.47;;;14.65;88.72
12077;BME280;12420;42.676;23.262;2023-04-20T12:34:39;94143.31;;;14.22;85.44
12077;BME280;12420;42.676;23.262;2023-04-20T12:37:05;94192.56;;;14.45;85.75
12077;BME280;12420;42.676;23.262;2023-04-20T12:39:32;94178.94;;;14.64;87.24
12077;BME280;12420;42.676;23.262;2023-04-20T12:41:59;94170.97;;;14.68;86.63
12077;BME280;12420;42.676;23.262;2023-04-20T12:44:28;94186.09;;;14.83;86.51
12077;BME280;12420;42.676;23.262;2023-04-20T12:46:55;94145.34;;;14.62;84.38
12077;BME280;12420;42.676;23.262;2023-04-20T12:49:21;94178.44;;;14.91;84.64
12077;BME280;12420;42.676;23.262;2023-04-20T12:51:48;94172.22;;;15.00;80.24